Time;durP1;ratioP1;P1;durP2;ratioP2;P2;SDS_P1;SDS_P2;PMS_P1;PMS_P2;Temp;Humidity;BMP_temperature;BMP_pressure;BME280_temperature;BME280_humidity;BME280_pressure;Samples;Min_cycle;Max_cycle;Signal;HPM_P1;HPM_P2
2022/10/30 00:01:01;;;;;;;4.90;4.40;;;;;;;;;;6275532;22;20094;-72
2022/10/30 00:03:27;;;;;;;4.40;4.10;;;;;;;;;;6303083;22;20007;-73
2022/10/30 00:05:54;;;;;;;4.88;4.47;;;;;;;;;;6302749;22;20011;-73
2022/10/30 00:08:20;;;;;;;4.47;4.15;;;;;;;;;;6303024;22;20007;-72
2022/10/30 00:10:46;;;;;;;3.38;2.83;;;;;;;;;;6250332;22;20127;-73
2022/10/30 00:13:12;;;;;;;4.68;4.38;;;;;;;;;;6303069;22;20447;-74
2022/10/30 00:15:38;;;;;;;4.00;3.70;;;;;;;;;;6225297;22;20738;-73
2022/10/30 00:18:05;;;;;;;3.65;3.42;;;;;;;;;;6250886;22;20011;-73
2022/10/30 00:20:30;;;;;;;4.28;3.50;;;;;;;;;;6303122;22;20015;-73
2022/10/30 00:22:57;;;;;;;2.83;2.72;;;;;;;;;;6303435;22;20141;-73
2022/10/30 00:25:22;;;;;;;4.38;4.00;;;;;;;;;;6302911;22;20061;-72
2022/10/30 00:27:48;;;;;;;5.40;4.93;;;;;;;;;;6303640;22;20011;-72
2022/10/30 00:30:15;;;;;;;5.65;5.10;;;;;;;;;;6249947;22;20090;-73
2022/10/30 00:32:41;;;;;;;5.97;5.47;;;;;;;;;;6276117;22;20065;-73
2022/10/30 00:35:08;;;;;;;6.30;5.38;;;;;;;;;;6275662;22;20039;-74
2022/10/30 00:37:34;;;;;;;5.10;4.70;;;;;;;;;;6276023;22;20133;-72
2022/10/30 00:40:00;;;;;;;5.82;5.43;;;;;;;;;;6250703;22;20635;-73
2022/10/30 00:42:29;;;;;;;5.20;4.90;;;;;;;;;;6302593;22;20013;-73
2022/10/30 00:44:55;;;;;;;5.10;4.57;;;;;;;;;;6276140;22;20015;-72
2022/10/30 00:47:26;;;;;;;5.60;5.15;;;;;;;;;;6275447;22;20003;-74
2022/10/30 00:49:55;;;;;;;8.48;4.65;;;;;;;;;;6251158;22;20026;-72
2022/10/30 00:52:22;;;;;;;5.20;4.63;;;;;;;;;;6275781;22;20423;-72
2022/10/30 00:54:48;;;;;;;6.25;4.78;;;;;;;;;;6250652;22;20101;-73
2022/10/30 00:57:14;;;;;;;5.68;5.28;;;;;;;;;;6302552;22;20015;-73
2022/10/30 00:59:41;;;;;;;5.72;5.15;;;;;;;;;;6250039;22;20011;-72
2022/10/30 01:02:07;;;;;;;4.97;4.50;;;;;;;;;;6302985;22;20329;-72
2022/10/30 01:04:33;;;;;;;3.80;3.58;;;;;;;;;;6275459;22;20011;-72
2022/10/30 01:06:59;;;;;;;5.53;5.13;;;;;;;;;;6275394;22;20011;-72
2022/10/30 01:09:25;;;;;;;5.55;5.07;;;;;;;;;;6302517;22;20072;-73
2022/10/30 01:11:51;;;;;;;6.65;5.18;;;;;;;;;;6275346;22;20023;-71
2022/10/30 01:14:17;;;;;;;5.32;4.88;;;;;;;;;;6275462;22;20090;-72
2022/10/30 01:17:12;;;;;;;4.18;3.78;;;;;;;;;;6302100;22;20010;-72
2022/10/30 01:19:43;;;;;;;8.02;5.60;;;;;;;;;;6192988;22;20057;-73
2022/10/30 01:22:09;;;;;;;6.30;5.70;;;;;;;;;;6249962;22;20056;-71
2022/10/30 01:24:50;;;;;;;6.18;5.57;;;;;;;;;;6303069;22;20046;-73
2022/10/30 01:27:15;;;;;;;;;;;;;;;;;;6276685;22;20011;-72
2022/10/30 01:30:04;;;;;;;5.40;4.90;;;;;;;;;;6224894;22;19929;-73
2022/10/30 01:32:30;;;;;;;5.63;5.05;;;;;;;;;;6224678;22;20030;-73
2022/10/30 01:35:15;;;;;;;5.43;5.00;;;;;;;;;;6275514;22;20414;-72
2022/10/30 01:38:00;;;;;;;5.40;5.00;;;;;;;;;;6275506;22;20018;-73
2022/10/30 01:40:26;;;;;;;7.68;5.50;;;;;;;;;;6274944;22;20065;-72
2022/10/30 01:42:57;;;;;;;5.28;4.75;;;;;;;;;;6275388;22;20644;-73
2022/10/30 01:45:44;;;;;;;5.90;5.30;;;;;;;;;;6302179;22;20341;-71
2022/10/30 01:48:29;;;;;;;6.85;5.13;;;;;;;;;;6275589;22;20011;-73
2022/10/30 01:51:09;;;;;;;7.70;4.90;;;;;;;;;;6250102;22;20495;-73
2022/10/30 01:53:55;;;;;;;5.85;4.25;;;;;;;;;;6275548;22;20101;-72
2022/10/30 01:56:36;;;;;;;3.33;3.13;;;;;;;;;;6275535;22;20515;-74
2022/10/30 01:59:22;;;;;;;4.93;4.47;;;;;;;;;;6250690;22;20011;-73
2022/10/30 02:01:48;;;;;;;6.18;5.60;;;;;;;;;;6275621;22;20470;-73
2022/10/30 02:04:14;;;;;;;5.80;5.40;;;;;;;;;;6302766;22;20011;-72
2022/10/30 02:06:40;;;;;;;5.07;4.68;;;;;;;;;;6249850;22;20093;-72
2022/10/30 02:09:07;;;;;;;5.43;4.05;;;;;;;;;;6275412;22;20011;-72
2022/10/30 02:11:34;;;;;;;6.13;5.53;;;;;;;;;;6275121;22;20097;-72
2022/10/30 02:14:01;;;;;;;4.93;4.45;;;;;;;;;;6275679;22;20046;-72
2022/10/30 02:16:29;;;;;;;4.75;4.15;;;;;;;;;;6249656;22;20018;-74
2022/10/30 02:18:55;;;;;;;5.03;4.55;;;;;;;;;;6275224;22;20092;-74
2022/10/30 02:21:21;;;;;;;5.30;4.90;;;;;;;;;;6302006;22;20451;-73
2022/10/30 02:23:47;;;;;;;4.60;4.30;;;;;;;;;;6274743;22;20069;-72
2022/10/30 02:26:13;;;;;;;5.53;5.07;;;;;;;;;;6274985;22;20038;-73
2022/10/30 02:28:40;;;;;;;4.13;3.83;;;;;;;;;;6249497;22;20398;-73
2022/10/30 02:31:06;;;;;;;7.15;4.22;;;;;;;;;;6302037;22;20023;-73
2022/10/30 02:33:32;;;;;;;3.40;3.20;;;;;;;;;;6302035;22;20053;-73
2022/10/30 02:35:58;;;;;;;4.82;4.53;;;;;;;;;;6274817;22;20082;-72
2022/10/30 02:38:24;;;;;;;3.25;3.05;;;;;;;;;;6274803;22;20456;-73
2022/10/30 02:40:50;;;;;;;5.25;4.85;;;;;;;;;;6249350;22;20073;-73
2022/10/30 02:43:16;;;;;;;3.05;2.85;;;;;;;;;;6275074;22;20091;-73
2022/10/30 02:45:42;;;;;;;3.30;3.00;;;;;;;;;;6274865;22;20021;-73
2022/10/30 02:48:08;;;;;;;4.50;4.10;;;;;;;;;;6275066;22;20355;-72
2022/10/30 02:50:35;;;;;;;3.70;3.40;;;;;;;;;;6274287;22;20019;-73
2022/10/30 02:53:02;;;;;;;2.90;2.70;;;;;;;;;;6224629;22;20019;-72
2022/10/30 02:55:28;;;;;;;4.25;3.88;;;;;;;;;;6274338;22;20400;-73
2022/10/30 02:57:54;;;;;;;3.17;2.88;;;;;;;;;;6249172;22;20053;-74
2022/10/30 03:00:19;;;;;;;3.63;3.28;;;;;;;;;;6301723;22;20091;-72
2022/10/30 03:02:46;;;;;;;2.80;2.60;;;;;;;;;;6249021;22;20062;-74
2022/10/30 03:05:12;;;;;;;4.22;2.92;;;;;;;;;;6302582;22;20014;-74
2022/10/30 03:07:38;;;;;;;2.45;2.25;;;;;;;;;;6274979;22;20011;-73
2022/10/30 03:10:04;;;;;;;2.58;2.47;;;;;;;;;;6302505;22;20023;-74
2022/10/30 03:12:31;;;;;;;2.03;1.90;;;;;;;;;;6248656;22;20454;-74
2022/10/30 03:14:57;;;;;;;6.28;3.15;;;;;;;;;;6275081;22;20014;-73
2022/10/30 03:17:23;;;;;;;5.35;3.05;;;;;;;;;;6301685;22;20015;-73
2022/10/30 03:19:50;;;;;;;2.92;2.65;;;;;;;;;;6249573;22;20030;-74
2022/10/30 03:22:16;;;;;;;2.70;2.50;;;;;;;;;;6275857;22;20007;-72
2022/10/30 03:24:42;;;;;;;2.33;2.10;;;;;;;;;;6274904;22;20022;-73
2022/10/30 03:27:08;;;;;;;2.10;2.00;;;;;;;;;;6252289;22;20015;-73
2022/10/30 03:29:34;;;;;;;2.30;2.03;;;;;;;;;;6290209;22;20015;-73
2022/10/30 03:32:01;;;;;;;2.40;2.30;;;;;;;;;;6292832;22;20019;-73
2022/10/30 03:34:32;;;;;;;3.03;2.40;;;;;;;;;;6238147;22;20030;-75
2022/10/30 03:37:02;;;;;;;2.40;2.30;;;;;;;;;;6277522;22;20015;-73
2022/10/30 03:39:28;;;;;;;2.05;1.95;;;;;;;;;;6251360;22;20616;-74
2022/10/30 03:41:54;;;;;;;2.38;2.15;;;;;;;;;;6304244;22;20090;-73
2022/10/30 03:44:20;;;;;;;6.07;2.30;;;;;;;;;;6304776;22;20089;-72
2022/10/30 03:46:47;;;;;;;2.42;2.22;;;;;;;;;;6276335;22;20011;-74
2022/10/30 03:49:33;;;;;;;4.25;2.33;;;;;;;;;;6302899;22;20019;-74
2022/10/30 03:52:02;;;;;;;4.35;2.38;;;;;;;;;;6276538;22;20019;-73
2022/10/30 03:54:28;;;;;;;3.08;2.88;;;;;;;;;;6275792;22;20286;-74
2022/10/30 03:56:54;;;;;;;3.75;2.58;;;;;;;;;;6303069;22;20457;-74
2022/10/30 03:59:22;;;;;;;2.88;2.67;;;;;;;;;;6275847;22;20441;-74
2022/10/30 04:02:10;;;;;;;1.67;1.60;;;;;;;;;;6255303;22;20017;-74
2022/10/30 04:04:36;;;;;;;3.05;2.33;;;;;;;;;;6275934;22;20015;-74
2022/10/30 04:07:02;;;;;;;2.42;2.22;;;;;;;;;;6250428;22;20008;-74
2022/10/30 04:09:28;;;;;;;2.65;2.05;;;;;;;;;;6275715;22;20087;-73
2022/10/30 04:11:55;;;;;;;2.92;2.00;;;;;;;;;;6249403;22;20467;-74
2022/10/30 04:14:21;;;;;;;2.00;1.90;;;;;;;;;;6250378;22;20007;-73
2022/10/30 04:16:47;;;;;;;1.85;1.75;;;;;;;;;;6276097;22;20038;-75
2022/10/30 04:19:13;;;;;;;1.83;1.73;;;;;;;;;;6276999;22;20019;-74
2022/10/30 04:21:42;;;;;;;2.35;1.95;;;;;;;;;;6303559;22;20098;-74
2022/10/30 04:24:08;;;;;;;1.90;1.80;;;;;;;;;;6304253;22;20010;-72
2022/10/30 04:26:34;;;;;;;2.92;1.80;;;;;;;;;;6276637;22;20035;-75
2022/10/30 04:29:00;;;;;;;4.45;1.90;;;;;;;;;;6276773;22;20034;-73
2022/10/30 04:31:26;;;;;;;1.80;1.70;;;;;;;;;;6303053;22;20042;-73
2022/10/30 04:33:52;;;;;;;1.88;1.73;;;;;;;;;;6276150;22;20078;-73
2022/10/30 04:36:23;;;;;;;1.77;1.67;;;;;;;;;;6275895;22;20012;-74
2022/10/30 04:38:49;;;;;;;1.80;1.70;;;;;;;;;;6250966;22;20042;-73
2022/10/30 04:41:15;;;;;;;3.92;2.00;;;;;;;;;;6275921;22;20035;-74
2022/10/30 04:43:52;;;;;;;1.60;1.50;;;;;;;;;;6276126;22;20011;-74
2022/10/30 04:46:18;;;;;;;2.60;2.40;;;;;;;;;;6275421;22;20362;-73
2022/10/30 04:48:44;;;;;;;2.38;2.28;;;;;;;;;;6275649;22;20007;-75
2022/10/30 04:51:10;;;;;;;2.22;2.13;;;;;;;;;;6276223;22;20019;-74
2022/10/30 04:53:37;;;;;;;5.03;2.00;;;;;;;;;;6275147;22;20019;-74
2022/10/30 04:56:06;;;;;;;1.63;1.52;;;;;;;;;;6250566;22;20026;-72
2022/10/30 04:58:32;;;;;;;1.90;1.73;;;;;;;;;;6250108;22;20011;-73
2022/10/30 05:01:04;;;;;;;1.63;1.52;;;;;;;;;;6275509;22;20015;-74
2022/10/30 05:03:30;;;;;;;3.03;1.60;;;;;;;;;;6249929;22;20007;-74
2022/10/30 05:06:01;;;;;;;2.95;1.40;;;;;;;;;;6275473;22;20011;-73
2022/10/30 05:08:27;;;;;;;1.70;1.60;;;;;;;;;;6275097;22;20341;-76
2022/10/30 05:10:53;;;;;;;1.65;1.55;;;;;;;;;;6275650;22;20054;-73
2022/10/30 05:13:19;;;;;;;1.50;1.40;;;;;;;;;;6250385;22;20007;-73
2022/10/30 05:15:45;;;;;;;2.67;1.50;;;;;;;;;;6302705;22;20019;-74
2022/10/30 05:18:11;;;;;;;1.55;1.42;;;;;;;;;;6274874;22;20022;-73
2022/10/30 05:20:37;;;;;;;4.38;1.73;;;;;;;;;;6275075;22;20007;-75
2022/10/30 05:23:03;;;;;;;2.45;1.42;;;;;;;;;;6304135;22;20011;-74
2022/10/30 05:25:30;;;;;;;2.22;1.45;;;;;;;;;;6276876;22;20403;-75
2022/10/30 05:27:58;;;;;;;2.75;1.90;;;;;;;;;;6250168;22;20069;-75
2022/10/30 05:30:26;;;;;;;1.30;1.30;;;;;;;;;;6275549;22;20011;-74
2022/10/30 05:32:56;;;;;;;3.58;2.10;;;;;;;;;;6224522;22;20455;-75
2022/10/30 05:35:22;;;;;;;1.08;1.08;;;;;;;;;;6275520;22;20106;-73
2022/10/30 05:37:48;;;;;;;1.85;1.40;;;;;;;;;;6249676;22;20436;-74
2022/10/30 05:40:14;;;;;;;1.50;1.40;;;;;;;;;;6249953;22;20011;-74
2022/10/30 05:42:44;;;;;;;1.60;1.50;;;;;;;;;;6249069;22;20026;-75
2022/10/30 05:45:10;;;;;;;1.75;1.65;;;;;;;;;;6275064;22;20018;-74
2022/10/30 05:47:36;;;;;;;3.10;1.80;;;;;;;;;;6274914;22;20082;-73
2022/10/30 05:50:03;;;;;;;5.07;1.60;;;;;;;;;;6275399;22;20011;-74
2022/10/30 05:52:29;;;;;;;1.63;1.52;;;;;;;;;;6302251;22;20452;-74
2022/10/30 05:54:55;;;;;;;1.85;1.75;;;;;;;;;;6275884;22;20022;-75
2022/10/30 05:58:00;;;;;;;1.20;1.20;;;;;;;;;;6248081;22;20026;-74
2022/10/30 06:00:27;;;;;;;1.33;1.30;;;;;;;;;;6275242;22;20079;-74
2022/10/30 06:03:02;;;;;;;1.77;1.67;;;;;;;;;;6275099;22;20015;-75
2022/10/30 06:05:30;;;;;;;3.42;1.67;;;;;;;;;;6275259;22;20106;-76
2022/10/30 06:07:56;;;;;;;3.70;1.15;;;;;;;;;;6302397;22;20019;-74
2022/10/30 06:10:22;;;;;;;1.40;1.40;;;;;;;;;;6302530;22;20011;-74
2022/10/30 06:13:05;;;;;;;1.20;1.20;;;;;;;;;;6253360;22;20022;-75
2022/10/30 06:15:39;;;;;;;1.95;1.65;;;;;;;;;;6274788;22;20408;-75
2022/10/30 06:18:05;;;;;;;2.25;1.60;;;;;;;;;;6249748;22;20086;-74
2022/10/30 06:20:40;;;;;;;1.42;1.33;;;;;;;;;;6274856;22;20039;-76
2022/10/30 06:23:08;;;;;;;1.77;1.33;;;;;;;;;;6270861;22;20415;-74
2022/10/30 06:25:44;;;;;;;1.20;1.20;;;;;;;;;;6274899;22;20007;-76
2022/10/30 06:28:20;;;;;;;3.00;1.38;;;;;;;;;;6251484;22;20019;-76
2022/10/30 06:30:46;;;;;;;2.65;1.73;;;;;;;;;;6274975;22;20030;-76
2022/10/30 06:33:12;;;;;;;2.00;1.50;;;;;;;;;;6302194;22;20089;-75
2022/10/30 06:35:44;;;;;;;1.80;1.40;;;;;;;;;;6274830;22;20409;-77
2022/10/30 06:38:10;;;;;;;3.03;1.50;;;;;;;;;;6301195;22;20011;-74
2022/10/30 06:40:37;;;;;;;1.48;1.40;;;;;;;;;;6248530;22;20347;-75
2022/10/30 06:43:41;;;;;;;2.88;1.70;;;;;;;;;;6252278;22;20031;-76
2022/10/30 06:46:19;;;;;;;1.17;1.10;;;;;;;;;;6274838;22;20023;-75
2022/10/30 06:48:45;;;;;;;4.72;1.50;;;;;;;;;;6274893;22;20467;-74
2022/10/30 06:51:13;;;;;;;3.90;1.35;;;;;;;;;;6248706;22;20371;-74
